sensor_id;sensor_type;location;lat;lon;timestamp;P1;durP1;ratioP1;P2;durP2;ratioP2
7969;SDS011;4030;52.362;9.206;2023-12-20T00:00:25;3.23;;;2.90;;
7969;SDS011;4030;52.362;9.206;2023-12-20T00:02:51;3.00;;;2.70;;
7969;SDS011;4030;52.362;9.206;2023-12-20T00:05:16;4.10;;;2.90;;
7969;SDS011;4030;52.362;9.206;2023-12-20T00:07:42;3.00;;;2.70;;
7969;SDS011;4030;52.362;9.206;2023-12-20T00:10:08;3.07;;;2.67;;
7969;SDS011;4030;52.362;9.206;2023-12-20T00:12:34;2.80;;;2.40;;
7969;SDS011;4030;52.362;9.206;2023-12-20T00:15:00;3.00;;;2.70;;
7969;SDS011;4030;52.362;9.206;2023-12-20T00:17:26;2.90;;;2.30;;
7969;SDS011;4030;52.362;9.206;2023-12-20T00:19:51;3.17;;;2.20;;
7969;SDS011;4030;52.362;9.206;2023-12-20T00:22:17;3.67;;;1.83;;
7969;SDS011;4030;52.362;9.206;2023-12-20T00:24:42;4.07;;;2.17;;
7969;SDS011;4030;52.362;9.206;2023-12-20T00:27:08;3.27;;;2.00;;
7969;SDS011;4030;52.362;9.206;2023-12-20T00:29:34;3.85;;;2.00;;
7969;SDS011;4030;52.362;9.206;2023-12-20T00:31:59;2.20;;;1.70;;
7969;SDS011;4030;52.362;9.206;2023-12-20T00:34:25;3.17;;;1.87;;
7969;SDS011;4030;52.362;9.206;2023-12-20T00:36:51;2.93;;;1.70;;
7969;SDS011;4030;52.362;9.206;2023-12-20T00:39:16;3.07;;;1.90;;
7969;SDS011;4030;52.362;9.206;2023-12-20T00:41:42;3.27;;;1.77;;
7969;SDS011;4030;52.362;9.206;2023-12-20T00:44:08;3.17;;;1.67;;
7969;SDS011;4030;52.362;9.206;2023-12-20T00:46:33;3.20;;;1.87;;
7969;SDS011;4030;52.362;9.206;2023-12-20T00:48:59;3.87;;;1.77;;
7969;SDS011;4030;52.362;9.206;2023-12-20T00:51:24;2.33;;;1.60;;
7969;SDS011;4030;52.362;9.206;2023-12-20T00:53:50;3.57;;;1.70;;
7969;SDS011;4030;52.362;9.206;2023-12-20T00:56:19;2.03;;;1.43;;
7969;SDS011;4030;52.362;9.206;2023-12-20T00:58:45;2.73;;;1.60;;
7969;SDS011;4030;52.362;9.206;2023-12-20T01:01:11;3.90;;;1.50;;
7969;SDS011;4030;52.362;9.206;2023-12-20T01:03:37;2.97;;;1.77;;
7969;SDS011;4030;52.362;9.206;2023-12-20T01:06:03;3.40;;;1.60;;
7969;SDS011;4030;52.362;9.206;2023-12-20T01:08:30;3.73;;;1.83;;
7969;SDS011;4030;52.362;9.206;2023-12-20T01:10:55;2.37;;;1.47;;
7969;SDS011;4030;52.362;9.206;2023-12-20T01:13:21;3.60;;;1.70;;
7969;SDS011;4030;52.362;9.206;2023-12-20T01:15:47;3.50;;;1.50;;
7969;SDS011;4030;52.362;9.206;2023-12-20T01:18:13;2.88;;;1.50;;
7969;SDS011;4030;52.362;9.206;2023-12-20T01:20:39;3.37;;;1.63;;
7969;SDS011;4030;52.362;9.206;2023-12-20T01:23:05;4.00;;;1.70;;
7969;SDS011;4030;52.362;9.206;2023-12-20T01:25:30;3.90;;;1.93;;
7969;SDS011;4030;52.362;9.206;2023-12-20T01:27:56;4.33;;;1.70;;
7969;SDS011;4030;52.362;9.206;2023-12-20T01:30:22;4.45;;;1.70;;
7969;SDS011;4030;52.362;9.206;2023-12-20T01:32:47;3.53;;;1.63;;
7969;SDS011;4030;52.362;9.206;2023-12-20T01:35:13;3.28;;;1.48;;
7969;SDS011;4030;52.362;9.206;2023-12-20T01:37:39;4.33;;;1.90;;
7969;SDS011;4030;52.362;9.206;2023-12-20T01:40:05;4.67;;;1.80;;
7969;SDS011;4030;52.362;9.206;2023-12-20T01:42:31;4.00;;;1.80;;
7969;SDS011;4030;52.362;9.206;2023-12-20T01:44:57;2.57;;;1.53;;
7969;SDS011;4030;52.362;9.206;2023-12-20T01:47:22;4.90;;;1.77;;
7969;SDS011;4030;52.362;9.206;2023-12-20T01:49:48;4.93;;;1.80;;
7969;SDS011;4030;52.362;9.206;2023-12-20T01:52:15;5.27;;;1.97;;
7969;SDS011;4030;52.362;9.206;2023-12-20T01:54:41;4.77;;;2.00;;
7969;SDS011;4030;52.362;9.206;2023-12-20T01:57:08;4.10;;;1.80;;
7969;SDS011;4030;52.362;9.206;2023-12-20T01:59:34;4.70;;;1.90;;
7969;SDS011;4030;52.362;9.206;2023-12-20T02:02:00;4.43;;;1.90;;
7969;SDS011;4030;52.362;9.206;2023-12-20T02:04:28;4.33;;;1.80;;
7969;SDS011;4030;52.362;9.206;2023-12-20T02:06:54;3.77;;;1.73;;
7969;SDS011;4030;52.362;9.206;2023-12-20T02:09:21;6.73;;;1.93;;
7969;SDS011;4030;52.362;9.206;2023-12-20T02:11:47;4.97;;;2.20;;
7969;SDS011;4030;52.362;9.206;2023-12-20T02:14:14;4.43;;;2.00;;
7969;SDS011;4030;52.362;9.206;2023-12-20T02:16:39;4.57;;;2.03;;
7969;SDS011;4030;52.362;9.206;2023-12-20T02:19:06;4.70;;;1.93;;
7969;SDS011;4030;52.362;9.206;2023-12-20T02:21:39;3.83;;;1.70;;
7969;SDS011;4030;52.362;9.206;2023-12-20T02:24:05;3.60;;;1.87;;
7969;SDS011;4030;52.362;9.206;2023-12-20T02:26:34;3.73;;;2.00;;
7969;SDS011;4030;52.362;9.206;2023-12-20T02:29:00;3.20;;;1.67;;
7969;SDS011;4030;52.362;9.206;2023-12-20T02:31:26;5.17;;;2.00;;
7969;SDS011;4030;52.362;9.206;2023-12-20T02:33:52;3.90;;;1.83;;
7969;SDS011;4030;52.362;9.206;2023-12-20T02:36:17;4.00;;;1.70;;
7969;SDS011;4030;52.362;9.206;2023-12-20T02:38:43;4.50;;;1.80;;
7969;SDS011;4030;52.362;9.206;2023-12-20T02:41:09;4.23;;;1.67;;
7969;SDS011;4030;52.362;9.206;2023-12-20T02:43:34;5.43;;;1.53;;
7969;SDS011;4030;52.362;9.206;2023-12-20T02:46:00;4.43;;;1.80;;
7969;SDS011;4030;52.362;9.206;2023-12-20T02:48:26;3.27;;;1.57;;
7969;SDS011;4030;52.362;9.206;2023-12-20T02:50:51;5.20;;;1.60;;
7969;SDS011;4030;52.362;9.206;2023-12-20T02:53:17;4.30;;;1.70;;
7969;SDS011;4030;52.362;9.206;2023-12-20T02:55:43;4.27;;;1.50;;
7969;SDS011;4030;52.362;9.206;2023-12-20T02:58:08;3.57;;;1.33;;
7969;SDS011;4030;52.362;9.206;2023-12-20T03:00:34;3.80;;;1.70;;
7969;SDS011;4030;52.362;9.206;2023-12-20T03:02:59;2.90;;;1.40;;
7969;SDS011;4030;52.362;9.206;2023-12-20T03:05:25;3.77;;;1.60;;
7969;SDS011;4030;52.362;9.206;2023-12-20T03:07:51;5.33;;;1.53;;
7969;SDS011;4030;52.362;9.206;2023-12-20T03:10:18;4.57;;;1.30;;
7969;SDS011;4030;52.362;9.206;2023-12-20T03:12:44;3.73;;;1.30;;
7969;SDS011;4030;52.362;9.206;2023-12-20T03:15:09;4.47;;;1.40;;
7969;SDS011;4030;52.362;9.206;2023-12-20T03:17:35;4.10;;;1.40;;
7969;SDS011;4030;52.362;9.206;2023-12-20T03:20:01;3.57;;;1.30;;
7969;SDS011;4030;52.362;9.206;2023-12-20T03:22:27;3.73;;;1.40;;
7969;SDS011;4030;52.362;9.206;2023-12-20T03:24:53;3.57;;;1.43;;
7969;SDS011;4030;52.362;9.206;2023-12-20T03:27:18;4.27;;;1.37;;
7969;SDS011;4030;52.362;9.206;2023-12-20T03:29:44;4.20;;;1.47;;
7969;SDS011;4030;52.362;9.206;2023-12-20T03:32:10;2.47;;;1.23;;
7969;SDS011;4030;52.362;9.206;2023-12-20T03:34:35;5.00;;;1.50;;
7969;SDS011;4030;52.362;9.206;2023-12-20T03:37:01;2.93;;;1.17;;
7969;SDS011;4030;52.362;9.206;2023-12-20T03:39:27;4.23;;;1.40;;
7969;SDS011;4030;52.362;9.206;2023-12-20T03:41:52;5.67;;;1.40;;
7969;SDS011;4030;52.362;9.206;2023-12-20T03:44:18;4.03;;;1.50;;
7969;SDS011;4030;52.362;9.206;2023-12-20T03:46:44;3.57;;;1.33;;
7969;SDS011;4030;52.362;9.206;2023-12-20T03:49:10;3.37;;;1.43;;
7969;SDS011;4030;52.362;9.206;2023-12-20T03:51:36;5.40;;;1.97;;
7969;SDS011;4030;52.362;9.206;2023-12-20T03:54:02;4.17;;;1.20;;
7969;SDS011;4030;52.362;9.206;2023-12-20T03:56:28;4.40;;;1.50;;
7969;SDS011;4030;52.362;9.206;2023-12-20T03:58:53;3.33;;;1.40;;
7969;SDS011;4030;52.362;9.206;2023-12-20T04:01:19;3.20;;;1.50;;
7969;SDS011;4030;52.362;9.206;2023-12-20T04:03:45;2.77;;;1.07;;
7969;SDS011;4030;52.362;9.206;2023-12-20T04:06:15;5.10;;;1.30;;
7969;SDS011;4030;52.362;9.206;2023-12-20T04:08:42;5.23;;;1.40;;
7969;SDS011;4030;52.362;9.206;2023-12-20T04:11:08;4.20;;;1.27;;
7969;SDS011;4030;52.362;9.206;2023-12-20T04:13:34;3.60;;;1.43;;
7969;SDS011;4030;52.362;9.206;2023-12-20T04:15:59;5.90;;;1.40;;
7969;SDS011;4030;52.362;9.206;2023-12-20T04:18:25;5.17;;;1.63;;
7969;SDS011;4030;52.362;9.206;2023-12-20T04:20:51;5.23;;;1.77;;
7969;SDS011;4030;52.362;9.206;2023-12-20T04:23:16;4.73;;;1.73;;
7969;SDS011;4030;52.362;9.206;2023-12-20T04:25:42;4.17;;;1.70;;
7969;SDS011;4030;52.362;9.206;2023-12-20T04:28:08;4.40;;;1.50;;
7969;SDS011;4030;52.362;9.206;2023-12-20T04:30:33;4.57;;;1.60;;
7969;SDS011;4030;52.362;9.206;2023-12-20T04:33:00;4.80;;;1.63;;
7969;SDS011;4030;52.362;9.206;2023-12-20T04:35:25;4.77;;;1.80;;
7969;SDS011;4030;52.362;9.206;2023-12-20T04:37:51;5.87;;;1.80;;
7969;SDS011;4030;52.362;9.206;2023-12-20T04:40:17;4.43;;;1.50;;
7969;SDS011;4030;52.362;9.206;2023-12-20T04:42:42;6.67;;;1.90;;
7969;SDS011;4030;52.362;9.206;2023-12-20T04:45:08;5.53;;;1.53;;
7969;SDS011;4030;52.362;9.206;2023-12-20T04:47:34;5.20;;;1.90;;
7969;SDS011;4030;52.362;9.206;2023-12-20T04:50:00;6.30;;;1.73;;
7969;SDS011;4030;52.362;9.206;2023-12-20T04:52:25;4.37;;;1.60;;
7969;SDS011;4030;52.362;9.206;2023-12-20T04:54:51;4.63;;;1.80;;
7969;SDS011;4030;52.362;9.206;2023-12-20T04:57:17;4.10;;;1.90;;
7969;SDS011;4030;52.362;9.206;2023-12-20T04:59:42;3.63;;;1.70;;
7969;SDS011;4030;52.362;9.206;2023-12-20T05:02:08;4.63;;;1.70;;
7969;SDS011;4030;52.362;9.206;2023-12-20T05:04:34;6.53;;;1.93;;
7969;SDS011;4030;52.362;9.206;2023-12-20T05:07:00;6.03;;;1.97;;
7969;SDS011;4030;52.362;9.206;2023-12-20T05:09:25;5.27;;;1.87;;
7969;SDS011;4030;52.362;9.206;2023-12-20T05:11:51;6.53;;;2.60;;
7969;SDS011;4030;52.362;9.206;2023-12-20T05:14:17;7.30;;;2.17;;
7969;SDS011;4030;52.362;9.206;2023-12-20T05:16:42;6.07;;;2.10;;
7969;SDS011;4030;52.362;9.206;2023-12-20T05:19:08;6.97;;;2.40;;
7969;SDS011;4030;52.362;9.206;2023-12-20T05:21:33;4.53;;;1.87;;
7969;SDS011;4030;52.362;9.206;2023-12-20T05:23:59;6.53;;;2.10;;
7969;SDS011;4030;52.362;9.206;2023-12-20T05:26:25;5.90;;;2.10;;
7969;SDS011;4030;52.362;9.206;2023-12-20T05:28:51;5.47;;;2.13;;
7969;SDS011;4030;52.362;9.206;2023-12-20T05:31:17;5.73;;;2.00;;
7969;SDS011;4030;52.362;9.206;2023-12-20T05:33:43;7.50;;;2.20;;
7969;SDS011;4030;52.362;9.206;2023-12-20T05:36:08;5.57;;;1.90;;
7969;SDS011;4030;52.362;9.206;2023-12-20T05:38:36;5.13;;;1.80;;
7969;SDS011;4030;52.362;9.206;2023-12-20T05:41:02;5.33;;;2.13;;
7969;SDS011;4030;52.362;9.206;2023-12-20T05:43:28;6.77;;;2.10;;
7969;SDS011;4030;52.362;9.206;2023-12-20T05:45:54;6.23;;;2.30;;
7969;SDS011;4030;52.362;9.206;2023-12-20T05:48:20;3.97;;;1.80;;
7969;SDS011;4030;52.362;9.206;2023-12-20T05:50:45;6.90;;;2.13;;
7969;SDS011;4030;52.362;9.206;2023-12-20T05:53:11;7.37;;;2.27;;
7969;SDS011;4030;52.362;9.206;2023-12-20T05:55:36;6.17;;;1.93;;
7969;SDS011;4030;52.362;9.206;2023-12-20T05:58:02;5.60;;;2.47;;
7969;SDS011;4030;52.362;9.206;2023-12-20T06:00:28;7.27;;;2.40;;
7969;SDS011;4030;52.362;9.206;2023-12-20T06:02:54;5.63;;;2.20;;
7969;SDS011;4030;52.362;9.206;2023-12-20T06:05:19;8.33;;;2.63;;
7969;SDS011;4030;52.362;9.206;2023-12-20T06:07:45;5.83;;;2.00;;
7969;SDS011;4030;52.362;9.206;2023-12-20T06:10:13;6.97;;;2.40;;
7969;SDS011;4030;52.362;9.206;2023-12-20T06:12:39;7.07;;;2.50;;
7969;SDS011;4030;52.362;9.206;2023-12-20T06:15:05;8.43;;;2.80;;
7969;SDS011;4030;52.362;9.206;2023-12-20T06:17:31;5.13;;;2.10;;
7969;SDS011;4030;52.362;9.206;2023-12-20T06:19:57;7.43;;;2.30;;
7969;SDS011;4030;52.362;9.206;2023-12-20T06:22:23;8.00;;;2.53;;
7969;SDS011;4030;52.362;9.206;2023-12-20T06:24:48;5.77;;;2.27;;
7969;SDS011;4030;52.362;9.206;2023-12-20T06:27:14;6.07;;;2.20;;
7969;SDS011;4030;52.362;9.206;2023-12-20T06:29:40;7.37;;;2.40;;
7969;SDS011;4030;52.362;9.206;2023-12-20T06:32:06;7.23;;;2.13;;
7969;SDS011;4030;52.362;9.206;2023-12-20T06:34:32;7.10;;;2.60;;
7969;SDS011;4030;52.362;9.206;2023-12-20T06:36:57;6.80;;;2.80;;
7969;SDS011;4030;52.362;9.206;2023-12-20T06:39:23;9.40;;;2.57;;
7969;SDS011;4030;52.362;9.206;2023-12-20T06:41:49;6.97;;;2.27;;
7969;SDS011;4030;52.362;9.206;2023-12-20T06:44:14;5.80;;;2.53;;
7969;SDS011;4030;52.362;9.206;2023-12-20T06:46:40;9.07;;;2.67;;
7969;SDS011;4030;52.362;9.206;2023-12-20T06:49:06;4.73;;;2.40;;
7969;SDS011;4030;52.362;9.206;2023-12-20T06:51:31;6.70;;;2.43;;
7969;SDS011;4030;52.362;9.206;2023-12-20T06:53:57;9.00;;;2.60;;
7969;SDS011;4030;52.362;9.206;2023-12-20T06:56:23;6.23;;;2.33;;
7969;SDS011;4030;52.362;9.206;2023-12-20T06:58:49;7.80;;;2.63;;
7969;SDS011;4030;52.362;9.206;2023-12-20T07:01:14;7.07;;;2.07;;
7969;SDS011;4030;52.362;9.206;2023-12-20T07:03:41;9.13;;;2.60;;
7969;SDS011;4030;52.362;9.206;2023-12-20T07:06:07;8.93;;;2.50;;
7969;SDS011;4030;52.362;9.206;2023-12-20T07:08:33;5.50;;;2.07;;
7969;SDS011;4030;52.362;9.206;2023-12-20T07:10:59;6.63;;;2.50;;
7969;SDS011;4030;52.362;9.206;2023-12-20T07:13:24;6.70;;;2.47;;
7969;SDS011;4030;52.362;9.206;2023-12-20T07:15:50;7.37;;;2.40;;
7969;SDS011;4030;52.362;9.206;2023-12-20T07:18:16;7.53;;;2.20;;
7969;SDS011;4030;52.362;9.206;2023-12-20T07:20:42;8.70;;;2.70;;
7969;SDS011;4030;52.362;9.206;2023-12-20T07:23:08;6.13;;;2.10;;
7969;SDS011;4030;52.362;9.206;2023-12-20T07:25:33;8.83;;;3.03;;
7969;SDS011;4030;52.362;9.206;2023-12-20T07:27:59;6.53;;;2.47;;
7969;SDS011;4030;52.362;9.206;2023-12-20T07:30:25;9.17;;;2.70;;
7969;SDS011;4030;52.362;9.206;2023-12-20T07:32:50;6.80;;;2.50;;
7969;SDS011;4030;52.362;9.206;2023-12-20T07:35:17;7.30;;;2.50;;
7969;SDS011;4030;52.362;9.206;2023-12-20T07:37:43;7.37;;;2.40;;
7969;SDS011;4030;52.362;9.206;2023-12-20T07:40:09;6.70;;;2.40;;
7969;SDS011;4030;52.362;9.206;2023-12-20T07:42:35;7.47;;;2.60;;
7969;SDS011;4030;52.362;9.206;2023-12-20T07:45:01;8.07;;;2.93;;
7969;SDS011;4030;52.362;9.206;2023-12-20T07:47:27;7.77;;;2.93;;
7969;SDS011;4030;52.362;9.206;2023-12-20T07:49:52;8.13;;;2.70;;
7969;SDS011;4030;52.362;9.206;2023-12-20T07:52:18;7.80;;;2.53;;
7969;SDS011;4030;52.362;9.206;2023-12-20T07:54:45;9.03;;;2.87;;
7969;SDS011;4030;52.362;9.206;2023-12-20T07:57:11;8.07;;;2.53;;
7969;SDS011;4030;52.362;9.206;2023-12-20T07:59:37;9.87;;;2.70;;
7969;SDS011;4030;52.362;9.206;2023-12-20T08:02:03;7.17;;;2.90;;
7969;SDS011;4030;52.362;9.206;2023-12-20T08:04:29;8.30;;;2.73;;
7969;SDS011;4030;52.362;9.206;2023-12-20T08:06:54;7.13;;;2.57;;
7969;SDS011;4030;52.362;9.206;2023-12-20T08:09:20;8.43;;;2.63;;
7969;SDS011;4030;52.362;9.206;2023-12-20T08:11:49;7.00;;;2.70;;
7969;SDS011;4030;52.362;9.206;2023-12-20T08:14:15;8.57;;;2.80;;
7969;SDS011;4030;52.362;9.206;2023-12-20T08:16:40;8.83;;;3.00;;
7969;SDS011;4030;52.362;9.206;2023-12-20T08:19:06;8.17;;;2.70;;
7969;SDS011;4030;52.362;9.206;2023-12-20T08:21:32;9.13;;;2.97;;
7969;SDS011;4030;52.362;9.206;2023-12-20T08:23:58;7.53;;;2.63;;
7969;SDS011;4030;52.362;9.206;2023-12-20T08:26:25;7.37;;;2.50;;
7969;SDS011;4030;52.362;9.206;2023-12-20T08:28:51;6.50;;;2.57;;
7969;SDS011;4030;52.362;9.206;2023-12-20T08:31:17;8.43;;;3.27;;
7969;SDS011;4030;52.362;9.206;2023-12-20T08:33:44;8.03;;;2.77;;
7969;SDS011;4030;52.362;9.206;2023-12-20T08:36:11;7.90;;;2.63;;
7969;SDS011;4030;52.362;9.206;2023-12-20T08:38:37;8.33;;;2.80;;
7969;SDS011;4030;52.362;9.206;2023-12-20T08:41:03;6.83;;;2.63;;
7969;SDS011;4030;52.362;9.206;2023-12-20T08:43:30;6.77;;;2.87;;
7969;SDS011;4030;52.362;9.206;2023-12-20T08:45:56;7.50;;;2.90;;
7969;SDS011;4030;52.362;9.206;2023-12-20T08:48:22;8.70;;;2.90;;
7969;SDS011;4030;52.362;9.206;2023-12-20T08:50:48;4.87;;;2.33;;
7969;SDS011;4030;52.362;9.206;2023-12-20T08:53:15;8.10;;;3.23;;
7969;SDS011;4030;52.362;9.206;2023-12-20T08:55:41;9.60;;;3.00;;
7969;SDS011;4030;52.362;9.206;2023-12-20T08:58:07;9.93;;;3.10;;
7969;SDS011;4030;52.362;9.206;2023-12-20T09:00:36;9.07;;;3.37;;
7969;SDS011;4030;52.362;9.206;2023-12-20T09:03:03;6.47;;;2.70;;
7969;SDS011;4030;52.362;9.206;2023-12-20T09:05:29;10.30;;;3.03;;
7969;SDS011;4030;52.362;9.206;2023-12-20T09:07:55;6.67;;;2.87;;
7969;SDS011;4030;52.362;9.206;2023-12-20T09:10:21;8.83;;;2.77;;
7969;SDS011;4030;52.362;9.206;2023-12-20T09:12:50;5.87;;;2.53;;
7969;SDS011;4030;52.362;9.206;2023-12-20T09:15:21;8.37;;;3.13;;
7969;SDS011;4030;52.362;9.206;2023-12-20T09:17:50;6.57;;;2.77;;
7969;SDS011;4030;52.362;9.206;2023-12-20T09:20:16;7.20;;;2.60;;
7969;SDS011;4030;52.362;9.206;2023-12-20T09:22:42;8.50;;;3.03;;
7969;SDS011;4030;52.362;9.206;2023-12-20T09:25:09;9.40;;;2.90;;
7969;SDS011;4030;52.362;9.206;2023-12-20T09:27:35;5.60;;;2.33;;
7969;SDS011;4030;52.362;9.206;2023-12-20T09:30:01;7.13;;;2.60;;
7969;SDS011;4030;52.362;9.206;2023-12-20T09:32:27;7.63;;;2.77;;
7969;SDS011;4030;52.362;9.206;2023-12-20T09:34:52;7.90;;;3.13;;
7969;SDS011;4030;52.362;9.206;2023-12-20T09:37:18;8.63;;;2.90;;
7969;SDS011;4030;52.362;9.206;2023-12-20T09:39:44;7.93;;;2.97;;
7969;SDS011;4030;52.362;9.206;2023-12-20T09:42:11;6.90;;;2.60;;
7969;SDS011;4030;52.362;9.206;2023-12-20T09:44:39;6.63;;;2.80;;
7969;SDS011;4030;52.362;9.206;2023-12-20T09:47:07;6.20;;;2.87;;
7969;SDS011;4030;52.362;9.206;2023-12-20T09:49:33;6.57;;;2.60;;
7969;SDS011;4030;52.362;9.206;2023-12-20T09:52:00;6.70;;;3.00;;
7969;SDS011;4030;52.362;9.206;2023-12-20T09:54:26;8.93;;;3.03;;
7969;SDS011;4030;52.362;9.206;2023-12-20T09:56:53;8.97;;;2.50;;
7969;SDS011;4030;52.362;9.206;2023-12-20T09:59:19;6.73;;;2.67;;
7969;SDS011;4030;52.362;9.206;2023-12-20T10:01:45;7.70;;;2.57;;
7969;SDS011;4030;52.362;9.206;2023-12-20T10:04:12;8.10;;;2.87;;
7969;SDS011;4030;52.362;9.206;2023-12-20T10:06:42;6.93;;;2.50;;
7969;SDS011;4030;52.362;9.206;2023-12-20T10:09:09;7.37;;;2.67;;
7969;SDS011;4030;52.362;9.206;2023-12-20T10:11:36;8.17;;;2.73;;
7969;SDS011;4030;52.362;9.206;2023-12-20T10:14:03;7.90;;;2.63;;
7969;SDS011;4030;52.362;9.206;2023-12-20T10:16:29;8.00;;;3.07;;
7969;SDS011;4030;52.362;9.206;2023-12-20T10:18:56;5.57;;;2.57;;
7969;SDS011;4030;52.362;9.206;2023-12-20T10:21:22;7.17;;;2.83;;
7969;SDS011;4030;52.362;9.206;2023-12-20T10:23:49;7.97;;;2.60;;
7969;SDS011;4030;52.362;9.206;2023-12-20T10:26:22;6.50;;;2.90;;
7969;SDS011;4030;52.362;9.206;2023-12-20T10:28:56;7.27;;;2.60;;
7969;SDS011;4030;52.362;9.206;2023-12-20T10:31:32;6.03;;;2.47;;
7969;SDS011;4030;52.362;9.206;2023-12-20T10:33:59;7.83;;;2.93;;
7969;SDS011;4030;52.362;9.206;2023-12-20T10:36:31;6.83;;;2.90;;
7969;SDS011;4030;52.362;9.206;2023-12-20T10:38:58;9.53;;;3.10;;
7969;SDS011;4030;52.362;9.206;2023-12-20T10:44:01;6.93;;;2.70;;
7969;SDS011;4030;52.362;9.206;2023-12-20T10:46:29;7.50;;;2.87;;
7969;SDS011;4030;52.362;9.206;2023-12-20T10:48:57;6.70;;;2.50;;
7969;SDS011;4030;52.362;9.206;2023-12-20T10:51:24;7.40;;;2.70;;
7969;SDS011;4030;52.362;9.206;2023-12-20T10:53:54;7.03;;;2.77;;
7969;SDS011;4030;52.362;9.206;2023-12-20T10:56:21;6.60;;;2.47;;
7969;SDS011;4030;52.362;9.206;2023-12-20T10:58:48;6.73;;;2.50;;
7969;SDS011;4030;52.362;9.206;2023-12-20T11:01:16;5.13;;;2.40;;
7969;SDS011;4030;52.362;9.206;2023-12-20T11:03:45;7.23;;;2.40;;
7969;SDS011;4030;52.362;9.206;2023-12-20T11:06:20;7.27;;;2.37;;
7969;SDS011;4030;52.362;9.206;2023-12-20T11:09:10;5.13;;;2.20;;
7969;SDS011;4030;52.362;9.206;2023-12-20T11:11:42;6.50;;;2.50;;
7969;SDS011;4030;52.362;9.206;2023-12-20T11:14:25;4.80;;;2.30;;
7969;SDS011;4030;52.362;9.206;2023-12-20T11:17:17;6.60;;;2.43;;
7969;SDS011;4030;52.362;9.206;2023-12-20T11:20:03;6.47;;;2.60;;
7969;SDS011;4030;52.362;9.206;2023-12-20T11:22:30;7.63;;;2.73;;
7969;SDS011;4030;52.362;9.206;2023-12-20T11:25:06;6.53;;;2.47;;
7969;SDS011;4030;52.362;9.206;2023-12-20T11:27:35;5.47;;;2.37;;
7969;SDS011;4030;52.362;9.206;2023-12-20T11:30:05;6.43;;;2.57;;
7969;SDS011;4030;52.362;9.206;2023-12-20T11:32:33;5.87;;;2.40;;
7969;SDS011;4030;52.362;9.206;2023-12-20T11:35:01;7.00;;;2.30;;
7969;SDS011;4030;52.362;9.206;2023-12-20T11:37:36;4.67;;;2.17;;
7969;SDS011;4030;52.362;9.206;2023-12-20T11:40:07;5.43;;;1.87;;
7969;SDS011;4030;52.362;9.206;2023-12-20T11:42:40;4.07;;;1.67;;
7969;SDS011;4030;52.362;9.206;2023-12-20T11:45:11;5.73;;;1.63;;
7969;SDS011;4030;52.362;9.206;2023-12-20T11:47:42;3.20;;;1.30;;
7969;SDS011;4030;52.362;9.206;2023-12-20T11:50:11;3.20;;;1.40;;
7969;SDS011;4030;52.362;9.206;2023-12-20T11:52:37;3.27;;;1.30;;
7969;SDS011;4030;52.362;9.206;2023-12-20T11:55:03;2.50;;;1.20;;
7969;SDS011;4030;52.362;9.206;2023-12-20T11:57:33;3.10;;;1.17;;
7969;SDS011;4030;52.362;9.206;2023-12-20T11:59:59;2.93;;;1.10;;
7969;SDS011;4030;52.362;9.206;2023-12-20T12:02:24;2.33;;;1.00;;
7969;SDS011;4030;52.362;9.206;2023-12-20T12:04:50;3.23;;;1.20;;
7969;SDS011;4030;52.362;9.206;2023-12-20T12:07:16;2.90;;;1.10;;
7969;SDS011;4030;52.362;9.206;2023-12-20T12:09:42;2.67;;;1.13;;
7969;SDS011;4030;52.362;9.206;2023-12-20T12:12:08;2.83;;;1.00;;
7969;SDS011;4030;52.362;9.206;2023-12-20T12:14:36;2.37;;;0.83;;
7969;SDS011;4030;52.362;9.206;2023-12-20T12:17:03;3.10;;;1.27;;
7969;SDS011;4030;52.362;9.206;2023-12-20T12:19:29;1.67;;;0.90;;
7969;SDS011;4030;52.362;9.206;2023-12-20T12:22:10;2.90;;;1.00;;
7969;SDS011;4030;52.362;9.206;2023-12-20T12:24:40;4.17;;;1.10;;
7969;SDS011;4030;52.362;9.206;2023-12-20T12:27:10;2.63;;;1.00;;
7969;SDS011;4030;52.362;9.206;2023-12-20T12:29:37;3.27;;;1.00;;
7969;SDS011;4030;52.362;9.206;2023-12-20T12:32:07;4.07;;;1.20;;
7969;SDS011;4030;52.362;9.206;2023-12-20T12:34:34;6.13;;;1.20;;
7969;SDS011;4030;52.362;9.206;2023-12-20T12:37:01;3.50;;;1.17;;
7969;SDS011;4030;52.362;9.206;2023-12-20T12:39:29;3.60;;;1.20;;
7969;SDS011;4030;52.362;9.206;2023-12-20T12:41:55;3.90;;;1.40;;
7969;SDS011;4030;52.362;9.206;2023-12-20T12:44:22;4.60;;;2.13;;
7969;SDS011;4030;52.362;9.206;2023-12-20T12:46:50;6.77;;;2.20;;
7969;SDS011;4030;52.362;9.206;2023-12-20T12:49:18;6.43;;;2.30;;
7969;SDS011;4030;52.362;9.206;2023-12-20T12:51:47;4.47;;;2.17;;
7969;SDS011;4030;52.362;9.206;2023-12-20T12:54:12;6.57;;;2.50;;
7969;SDS011;4030;52.362;9.206;2023-12-20T12:56:40;5.47;;;2.20;;
7969;SDS011;4030;52.362;9.206;2023-12-20T12:59:06;3.80;;;1.93;;
7969;SDS011;4030;52.362;9.206;2023-12-20T13:01:32;4.60;;;1.80;;
7969;SDS011;4030;52.362;9.206;2023-12-20T13:03:57;6.03;;;2.10;;
7969;SDS011;4030;52.362;9.206;2023-12-20T13:06:23;4.40;;;2.00;;
7969;SDS011;4030;52.362;9.206;2023-12-20T13:08:49;5.07;;;1.60;;
7969;SDS011;4030;52.362;9.206;2023-12-20T13:11:15;3.67;;;1.70;;
7969;SDS011;4030;52.362;9.206;2023-12-20T13:13:40;4.87;;;1.70;;
7969;SDS011;4030;52.362;9.206;2023-12-20T13:16:06;3.27;;;1.70;;
7969;SDS011;4030;52.362;9.206;2023-12-20T13:18:32;3.73;;;1.67;;
7969;SDS011;4030;52.362;9.206;2023-12-20T13:20:58;5.10;;;1.77;;
7969;SDS011;4030;52.362;9.206;2023-12-20T13:23:23;3.63;;;1.60;;
7969;SDS011;4030;52.362;9.206;2023-12-20T13:25:49;2.97;;;1.50;;
7969;SDS011;4030;52.362;9.206;2023-12-20T13:28:15;2.83;;;1.23;;
7969;SDS011;4030;52.362;9.206;2023-12-20T13:30:41;3.73;;;1.60;;
7969;SDS011;4030;52.362;9.206;2023-12-20T13:33:06;2.30;;;1.40;;
7969;SDS011;4030;52.362;9.206;2023-12-20T13:35:33;3.33;;;1.30;;
7969;SDS011;4030;52.362;9.206;2023-12-20T13:37:59;2.83;;;1.30;;
7969;SDS011;4030;52.362;9.206;2023-12-20T13:40:25;3.53;;;1.30;;
7969;SDS011;4030;52.362;9.206;2023-12-20T13:42:51;2.23;;;1.37;;
7969;SDS011;4030;52.362;9.206;2023-12-20T13:45:17;2.57;;;1.30;;
7969;SDS011;4030;52.362;9.206;2023-12-20T13:47:43;3.53;;;1.40;;
7969;SDS011;4030;52.362;9.206;2023-12-20T13:50:09;3.87;;;1.43;;
7969;SDS011;4030;52.362;9.206;2023-12-20T13:52:34;2.97;;;1.30;;
7969;SDS011;4030;52.362;9.206;2023-12-20T13:55:00;4.17;;;1.70;;
7969;SDS011;4030;52.362;9.206;2023-12-20T13:57:27;2.92;;;1.20;;
7969;SDS011;4030;52.362;9.206;2023-12-20T13:59:54;2.42;;;1.20;;
7969;SDS011;4030;52.362;9.206;2023-12-20T14:02:22;3.70;;;1.37;;
7969;SDS011;4030;52.362;9.206;2023-12-20T14:04:47;4.77;;;1.43;;
7969;SDS011;4030;52.362;9.206;2023-12-20T14:07:13;3.87;;;1.60;;
7969;SDS011;4030;52.362;9.206;2023-12-20T14:09:39;3.27;;;1.53;;
7969;SDS011;4030;52.362;9.206;2023-12-20T14:12:10;3.07;;;1.57;;
7969;SDS011;4030;52.362;9.206;2023-12-20T14:14:45;4.87;;;1.97;;
7969;SDS011;4030;52.362;9.206;2023-12-20T14:17:11;4.10;;;1.47;;
7969;SDS011;4030;52.362;9.206;2023-12-20T14:19:37;5.40;;;1.90;;
7969;SDS011;4030;52.362;9.206;2023-12-20T14:22:02;3.93;;;1.70;;
7969;SDS011;4030;52.362;9.206;2023-12-20T14:24:29;3.97;;;1.60;;
7969;SDS011;4030;52.362;9.206;2023-12-20T14:26:55;3.70;;;1.83;;
7969;SDS011;4030;52.362;9.206;2023-12-20T14:29:20;4.27;;;2.00;;
7969;SDS011;4030;52.362;9.206;2023-12-20T14:31:46;4.87;;;1.97;;
7969;SDS011;4030;52.362;9.206;2023-12-20T14:34:12;4.33;;;2.13;;
7969;SDS011;4030;52.362;9.206;2023-12-20T14:36:37;3.50;;;1.87;;
7969;SDS011;4030;52.362;9.206;2023-12-20T14:39:03;5.27;;;2.10;;
7969;SDS011;4030;52.362;9.206;2023-12-20T14:41:33;4.27;;;1.77;;
7969;SDS011;4030;52.362;9.206;2023-12-20T14:43:58;4.53;;;1.70;;
7969;SDS011;4030;52.362;9.206;2023-12-20T14:46:29;4.37;;;1.90;;
7969;SDS011;4030;52.362;9.206;2023-12-20T14:48:55;3.53;;;1.50;;
7969;SDS011;4030;52.362;9.206;2023-12-20T14:51:21;3.63;;;1.57;;
7969;SDS011;4030;52.362;9.206;2023-12-20T14:53:46;2.83;;;1.20;;
7969;SDS011;4030;52.362;9.206;2023-12-20T14:56:12;3.80;;;1.20;;
7969;SDS011;4030;52.362;9.206;2023-12-20T14:58:38;3.60;;;1.30;;
7969;SDS011;4030;52.362;9.206;2023-12-20T15:01:03;4.03;;;1.50;;
7969;SDS011;4030;52.362;9.206;2023-12-20T15:03:29;2.95;;;1.20;;
7969;SDS011;4030;52.362;9.206;2023-12-20T15:05:55;3.47;;;1.30;;
7969;SDS011;4030;52.362;9.206;2023-12-20T15:08:23;4.70;;;1.50;;
7969;SDS011;4030;52.362;9.206;2023-12-20T15:10:50;4.17;;;1.50;;
7969;SDS011;4030;52.362;9.206;2023-12-20T15:13:16;5.43;;;1.60;;